createdAt,value
2023-02-19T00:00:14.340Z,6.70
2023-02-19T00:02:41.950Z,6.30
2023-02-19T00:05:12.808Z,6.40
2023-02-19T00:07:40.340Z,6.40
2023-02-19T00:10:08.415Z,6.40
2023-02-19T00:12:35.969Z,6.70
2023-02-19T00:15:05.096Z,6.80
2023-02-19T00:17:32.977Z,7.00
2023-02-19T00:20:01.439Z,7.00
2023-02-19T00:22:29.138Z,6.70
2023-02-19T00:24:57.610Z,6.50
2023-02-19T00:27:24.934Z,6.40
2023-02-19T00:29:54.253Z,6.20
2023-02-19T00:32:21.482Z,6.20
2023-02-19T00:34:50.819Z,6.30
2023-02-19T00:37:18.258Z,6.50
2023-02-19T00:39:45.987Z,6.80
2023-02-19T00:42:13.496Z,7.00
2023-02-19T00:44:41.726Z,7.10
2023-02-19T00:47:09.453Z,7.10
2023-02-19T00:49:39.447Z,6.80
2023-02-19T00:52:06.772Z,6.60
2023-02-19T00:54:34.688Z,6.70
2023-02-19T00:57:02.251Z,6.90
2023-02-19T00:59:31.458Z,7.00
2023-02-19T01:01:58.848Z,7.00
2023-02-19T01:04:26.263Z,6.90
2023-02-19T01:06:54.219Z,6.70
2023-02-19T01:09:21.589Z,6.70
2023-02-19T01:11:49.387Z,6.60
2023-02-19T01:14:17.980Z,6.60
2023-02-19T01:16:45.464Z,6.70
2023-02-19T01:19:15.791Z,6.80
2023-02-19T01:21:44.394Z,6.70
2023-02-19T01:24:11.654Z,6.50
2023-02-19T01:26:39.156Z,6.30
2023-02-19T01:29:07.297Z,6.10
2023-02-19T01:31:36.847Z,6.10
2023-02-19T01:34:06.581Z,6.20
2023-02-19T01:36:37.195Z,6.40
2023-02-19T01:39:07.362Z,6.50
2023-02-19T01:41:39.618Z,6.30
2023-02-19T01:44:17.980Z,6.20
2023-02-19T01:46:48.779Z,6.20
2023-02-19T01:49:28.679Z,6.10
2023-02-19T01:52:30.953Z,6.20
2023-02-19T01:55:01.565Z,6.00
2023-02-19T01:57:37.276Z,6.10
2023-02-19T02:00:11.858Z,6.10
2023-02-19T02:02:44.565Z,6.10
2023-02-19T02:05:38.810Z,5.70
2023-02-19T02:08:26.190Z,5.80
2023-02-19T02:10:56.309Z,6.00
2023-02-19T02:13:23.860Z,5.70
2023-02-19T02:16:21.669Z,5.80
2023-02-19T02:19:09.644Z,5.70
2023-02-19T02:22:16.230Z,5.90
2023-02-19T02:24:55.505Z,5.90
2023-02-19T02:27:36.612Z,6.00
2023-02-19T02:30:27.523Z,6.00
2023-02-19T02:33:12.088Z,6.10
2023-02-19T02:35:50.185Z,6.30
2023-02-19T02:38:23.142Z,6.30
2023-02-19T02:40:51.933Z,6.60
2023-02-19T02:43:20.493Z,6.70
2023-02-19T02:45:48.087Z,6.90
2023-02-19T02:48:42.737Z,6.30
2023-02-19T02:51:21.501Z,6.40
2023-02-19T02:54:35.527Z,6.50
2023-02-19T02:57:09.964Z,6.70
2023-02-19T02:59:46.205Z,6.80
2023-02-19T03:02:23.043Z,6.90
2023-02-19T03:05:29.518Z,6.70
2023-02-19T03:08:00.684Z,6.70
2023-02-19T03:10:52.068Z,6.60
2023-02-19T03:14:13.617Z,6.70
2023-02-19T03:17:11.584Z,6.90
2023-02-19T03:19:46.001Z,7.00
2023-02-19T03:22:27.153Z,7.10
2023-02-19T03:25:28.827Z,7.20
2023-02-19T03:27:58.713Z,7.30
2023-02-19T03:30:39.554Z,7.30
2023-02-19T03:33:19.266Z,7.40
2023-02-19T03:36:08.874Z,7.50
2023-02-19T03:39:02.100Z,7.50
2023-02-19T03:41:56.811Z,7.50
2023-02-19T03:44:47.142Z,7.60
2023-02-19T03:47:41.853Z,7.50
2023-02-19T03:50:13.627Z,7.50
2023-02-19T03:52:41.269Z,7.50
2023-02-19T03:55:23.666Z,7.50
2023-02-19T03:58:05.924Z,7.50
2023-02-19T04:00:44.751Z,7.30
2023-02-19T04:03:54.771Z,7.10
2023-02-19T04:06:27.571Z,6.80
2023-02-19T04:08:59.714Z,6.80
2023-02-19T04:11:29.339Z,6.80
2023-02-19T04:14:15.464Z,6.70
2023-02-19T04:16:50.918Z,6.80
2023-02-19T04:19:21.611Z,6.80
2023-02-19T04:21:50.995Z,6.90
2023-02-19T04:24:33.060Z,7.00
2023-02-19T04:27:00.678Z,7.20
2023-02-19T04:29:27.991Z,7.20
2023-02-19T04:31:56.315Z,7.00
2023-02-19T04:34:23.764Z,7.10
2023-02-19T04:36:51.108Z,7.20
2023-02-19T04:39:18.446Z,7.20
2023-02-19T04:41:45.867Z,7.00
2023-02-19T04:44:14.369Z,7.00
2023-02-19T04:46:43.159Z,7.10
2023-02-19T04:49:11.682Z,7.00
2023-02-19T04:51:39.898Z,7.10
2023-02-19T04:54:07.878Z,7.10
2023-02-19T04:56:35.239Z,7.20
2023-02-19T04:59:04.312Z,7.20
2023-02-19T05:01:31.641Z,7.20
2023-02-19T05:03:59.116Z,7.40
2023-02-19T05:06:27.626Z,7.40
2023-02-19T05:08:55.125Z,7.20
2023-02-19T05:11:24.105Z,7.10
2023-02-19T05:13:51.629Z,6.90
2023-02-19T05:16:18.951Z,6.80
2023-02-19T05:18:47.018Z,6.90
2023-02-19T05:21:15.369Z,7.00
2023-02-19T05:23:43.969Z,7.00
2023-02-19T05:26:19.898Z,7.20
2023-02-19T05:28:49.259Z,7.20
2023-02-19T05:31:16.984Z,7.40
2023-02-19T05:33:47.611Z,7.50
2023-02-19T05:36:15.172Z,7.50
2023-02-19T05:38:44.117Z,7.50
2023-02-19T05:41:17.709Z,7.50
2023-02-19T05:43:52.549Z,7.50
2023-02-19T05:46:24.242Z,7.40
2023-02-19T05:48:53.816Z,7.20
2023-02-19T05:51:25.336Z,7.10
2023-02-19T05:53:52.936Z,7.20
2023-02-19T05:56:26.437Z,7.20
2023-02-19T05:58:55.011Z,7.30
2023-02-19T06:01:25.986Z,7.20
2023-02-19T06:03:57.253Z,7.00
2023-02-19T06:06:26.224Z,6.90
2023-02-19T06:08:54.134Z,6.80
2023-02-19T06:11:23.984Z,6.80
2023-02-19T06:13:53.413Z,6.80
2023-02-19T06:16:22.586Z,6.80
2023-02-19T06:18:51.372Z,6.90
2023-02-19T06:21:20.334Z,7.00
2023-02-19T06:23:48.247Z,7.10
2023-02-19T06:26:15.629Z,7.20
2023-02-19T06:28:46.548Z,7.40
2023-02-19T06:31:14.738Z,7.30
2023-02-19T06:33:43.401Z,7.40
2023-02-19T06:36:14.299Z,7.40
2023-02-19T06:38:42.416Z,7.20
2023-02-19T06:41:11.439Z,7.20
2023-02-19T06:44:07.701Z,7.20
2023-02-19T06:46:42.372Z,7.20
2023-02-19T06:49:09.794Z,7.40
2023-02-19T06:51:37.456Z,7.40
2023-02-19T06:54:05.571Z,7.20
2023-02-19T06:56:39.579Z,7.00
2023-02-19T06:59:13.521Z,6.90
2023-02-19T07:01:41.423Z,7.00
2023-02-19T07:04:10.372Z,7.20
2023-02-19T07:06:38.191Z,7.20
2023-02-19T07:09:08.604Z,7.20
2023-02-19T07:11:38.364Z,7.30
2023-02-19T07:14:09.303Z,7.40
2023-02-19T07:16:39.571Z,7.50
2023-02-19T07:19:07.198Z,7.60
2023-02-19T07:21:37.934Z,7.70
2023-02-19T07:24:06.680Z,7.60
2023-02-19T07:26:33.982Z,7.60
2023-02-19T07:29:02.634Z,7.60
2023-02-19T07:31:30.317Z,7.50
2023-02-19T07:33:57.611Z,7.50
2023-02-19T07:36:26.091Z,7.60
2023-02-19T07:38:59.402Z,7.70
2023-02-19T07:41:27.915Z,7.70
2023-02-19T07:43:58.175Z,7.80
2023-02-19T07:46:26.300Z,8.00
2023-02-19T07:48:54.893Z,8.00
2023-02-19T07:51:22.966Z,8.00
2023-02-19T07:53:54.432Z,8.00
2023-02-19T07:56:23.668Z,8.20
2023-02-19T07:58:51.466Z,8.20
2023-02-19T08:01:40.687Z,8.10
2023-02-19T08:04:12.260Z,8.10
2023-02-19T08:06:42.611Z,8.20
2023-02-19T08:09:10.305Z,8.30
2023-02-19T08:11:57.676Z,8.50
2023-02-19T08:14:27.528Z,8.50
2023-02-19T08:16:55.387Z,8.60
2023-02-19T08:19:25.598Z,8.90
2023-02-19T08:21:53.758Z,9.00
2023-02-19T08:24:24.973Z,8.90
2023-02-19T08:26:53.813Z,9.00
2023-02-19T08:29:21.402Z,9.10
2023-02-19T08:31:49.030Z,9.30
2023-02-19T08:34:17.332Z,9.40
2023-02-19T08:36:44.693Z,9.50
2023-02-19T08:39:11.945Z,9.50
2023-02-19T08:41:39.344Z,9.60
2023-02-19T08:44:08.589Z,9.70
2023-02-19T08:46:35.837Z,9.90
2023-02-19T08:49:04.744Z,10.10
2023-02-19T08:51:32.586Z,10.30
2023-02-19T08:54:04.857Z,10.40
2023-02-19T08:56:33.172Z,10.50
2023-02-19T08:59:00.468Z,10.70
2023-02-19T09:01:27.906Z,10.80
2023-02-19T09:03:56.152Z,10.90
2023-02-19T09:06:31.893Z,11.10
2023-02-19T09:09:24.578Z,11.20
2023-02-19T09:11:54.953Z,11.40
2023-02-19T09:14:33.212Z,11.70
2023-02-19T09:17:01.644Z,11.70
2023-02-19T09:19:30.727Z,11.50
2023-02-19T09:21:58.263Z,11.40
2023-02-19T09:24:26.684Z,11.40
2023-02-19T09:26:55.128Z,11.50
2023-02-19T09:29:25.785Z,11.60
2023-02-19T09:31:56.361Z,11.70
2023-02-19T09:34:24.855Z,11.70
2023-02-19T09:36:57.384Z,11.70
2023-02-19T09:39:24.870Z,11.80
2023-02-19T09:42:08.900Z,11.90
2023-02-19T09:44:40.554Z,12.10
2023-02-19T09:47:20.759Z,12.10
2023-02-19T09:49:52.293Z,12.30
2023-02-19T09:52:46.856Z,12.20
2023-02-19T09:55:37.145Z,12.30
2023-02-19T09:58:16.078Z,12.30
2023-02-19T10:00:48.887Z,12.50
2023-02-19T10:03:30.890Z,12.60
2023-02-19T10:06:02.869Z,12.80
2023-02-19T10:08:34.390Z,12.90
2023-02-19T10:11:05.162Z,13.10
2023-02-19T10:13:35.775Z,13.30
2023-02-19T10:16:07.279Z,13.30
2023-02-19T10:18:41.901Z,13.50
2023-02-19T10:21:16.336Z,13.60
2023-02-19T10:23:56.918Z,13.60
2023-02-19T10:26:25.215Z,13.70
2023-02-19T10:28:55.551Z,13.80
2023-02-19T10:31:26.300Z,14.00
2023-02-19T10:34:03.423Z,14.10
2023-02-19T10:36:38.482Z,14.00
2023-02-19T10:39:21.872Z,14.00
2023-02-19T10:41:52.411Z,14.00
2023-02-19T10:44:28.226Z,14.10
2023-02-19T10:46:58.993Z,14.30
2023-02-19T10:49:30.348Z,14.40
2023-02-19T10:52:03.954Z,14.40
2023-02-19T10:54:35.671Z,14.40
2023-02-19T10:57:43.601Z,14.10
2023-02-19T11:00:18.742Z,13.90
2023-02-19T11:02:47.844Z,14.50
2023-02-19T11:05:20.252Z,15.40
2023-02-19T11:07:54.998Z,16.00
2023-02-19T11:10:40.395Z,16.50
2023-02-19T11:13:15.816Z,17.20
2023-02-19T11:15:51.458Z,17.30
2023-02-19T11:18:33.313Z,17.20
2023-02-19T11:21:08.675Z,16.20
2023-02-19T11:23:47.686Z,15.90
2023-02-19T11:26:22.180Z,15.30
2023-02-19T11:29:01.168Z,15.30
2023-02-19T11:31:33.423Z,15.20
2023-02-19T11:34:07.197Z,15.40
2023-02-19T11:36:36.437Z,15.40
2023-02-19T11:39:16.546Z,15.10
2023-02-19T11:42:06.456Z,15.50
2023-02-19T11:45:11.748Z,15.40
2023-02-19T11:48:09.020Z,15.70
2023-02-19T11:51:05.444Z,15.70
2023-02-19T11:53:37.369Z,15.80
2023-02-19T11:56:22.594Z,15.80
2023-02-19T11:59:02.352Z,15.60
2023-02-19T12:02:18.558Z,15.80
2023-02-19T12:05:19.291Z,15.60
2023-02-19T12:08:05.429Z,15.40
2023-02-19T12:11:08.478Z,15.40
2023-02-19T12:14:09.785Z,15.40
2023-02-19T12:17:09.851Z,15.60
2023-02-19T12:20:07.987Z,15.30
2023-02-19T12:22:44.939Z,15.20
2023-02-19T12:25:34.317Z,15.40
2023-02-19T12:28:25.458Z,15.50
2023-02-19T12:31:22.465Z,15.40
2023-02-19T12:34:06.651Z,15.30
2023-02-19T12:36:50.830Z,15.50
2023-02-19T12:39:42.761Z,15.40
2023-02-19T12:42:32.110Z,15.40
2023-02-19T12:45:06.802Z,15.40
2023-02-19T12:47:42.294Z,15.20
2023-02-19T12:50:27.844Z,15.20
2023-02-19T12:53:21.487Z,15.00
2023-02-19T12:55:48.935Z,15.20
2023-02-19T12:58:28.994Z,15.20
2023-02-19T13:01:00.164Z,15.60
2023-02-19T13:03:38.484Z,15.30
2023-02-19T13:06:47.702Z,15.00
2023-02-19T13:09:25.259Z,15.20
2023-02-19T13:12:00.556Z,15.50
2023-02-19T13:14:33.821Z,15.50
2023-02-19T13:17:09.809Z,15.30
2023-02-19T13:19:38.715Z,15.50
2023-02-19T13:22:45.533Z,15.70
2023-02-19T13:25:15.109Z,15.60
2023-02-19T13:28:10.948Z,15.20
2023-02-19T13:31:00.431Z,15.60
2023-02-19T13:33:36.856Z,15.40
2023-02-19T13:36:13.214Z,15.40
2023-02-19T13:38:44.131Z,15.70
2023-02-19T13:41:31.599Z,15.80
2023-02-19T13:44:02.891Z,15.80
2023-02-19T13:46:40.716Z,15.30
2023-02-19T13:49:23.611Z,15.30
2023-02-19T13:51:56.537Z,15.10
2023-02-19T13:54:42.066Z,15.00
2023-02-19T13:57:25.553Z,15.10
2023-02-19T13:59:54.438Z,15.00
2023-02-19T14:02:22.025Z,15.00
2023-02-19T14:04:57.142Z,14.70
2023-02-19T14:07:27.188Z,14.80
2023-02-19T14:09:55.548Z,14.50
2023-02-19T14:12:31.334Z,14.30
2023-02-19T14:15:28.524Z,14.10
2023-02-19T14:17:57.270Z,14.00
2023-02-19T14:20:40.870Z,14.00
2023-02-19T14:23:25.631Z,13.90
2023-02-19T14:25:58.447Z,13.80
2023-02-19T14:28:33.757Z,13.90
2023-02-19T14:31:22.738Z,13.90
2023-02-19T14:34:14.914Z,13.80
2023-02-19T14:40:55.808Z,13.80
2023-02-19T14:43:25.893Z,13.70
2023-02-19T14:46:05.082Z,13.70
2023-02-19T14:48:38.433Z,13.60
2023-02-19T14:51:30.988Z,13.50
2023-02-19T14:54:01.698Z,13.50
2023-02-19T14:56:34.959Z,13.50
2023-02-19T14:59:10.204Z,13.50
2023-02-19T15:01:38.285Z,13.50
2023-02-19T15:04:07.055Z,13.90
2023-02-19T15:06:38.135Z,14.20
2023-02-19T15:09:07.480Z,14.60
2023-02-19T15:11:36.143Z,14.60
2023-02-19T15:14:06.715Z,14.20
2023-02-19T15:16:35.810Z,13.80
2023-02-19T15:19:08.180Z,13.60
2023-02-19T15:21:39.159Z,13.50
2023-02-19T15:24:07.490Z,13.50
2023-02-19T15:26:41.898Z,13.50
2023-02-19T15:29:14.808Z,13.30
2023-02-19T15:31:47.478Z,13.30
2023-02-19T15:34:35.094Z,13.30
2023-02-19T15:37:08.667Z,13.20
2023-02-19T15:39:37.748Z,13.30
2023-02-19T15:42:07.714Z,13.30
2023-02-19T15:44:53.948Z,13.30
2023-02-19T15:47:36.013Z,13.20
2023-02-19T15:50:13.363Z,13.10
2023-02-19T15:52:46.130Z,13.10
2023-02-19T15:55:19.987Z,13.10
2023-02-19T15:57:53.387Z,13.10
2023-02-19T16:00:34.581Z,13.00
2023-02-19T16:03:06.039Z,13.00
2023-02-19T16:05:40.923Z,13.10
2023-02-19T16:08:21.464Z,13.10
2023-02-19T16:10:57.845Z,13.00
2023-02-19T16:13:28.404Z,13.00
2023-02-19T16:16:36.347Z,13.00
2023-02-19T16:19:04.031Z,13.00
2023-02-19T16:21:32.481Z,13.00
2023-02-19T16:24:20.495Z,13.00
2023-02-19T16:26:49.313Z,12.90
2023-02-19T16:29:22.764Z,13.00
2023-02-19T16:32:02.090Z,13.00
2023-02-19T16:34:44.137Z,13.00
2023-02-19T16:37:30.502Z,13.00
2023-02-19T16:40:19.189Z,12.80
2023-02-19T16:42:49.561Z,12.80
2023-02-19T16:45:22.744Z,12.70
2023-02-19T16:47:52.223Z,12.70
2023-02-19T16:50:22.905Z,12.60
2023-02-19T16:52:57.485Z,12.60
2023-02-19T16:55:27.787Z,12.70
2023-02-19T16:57:57.143Z,12.60
2023-02-19T17:00:31.209Z,12.50
2023-02-19T17:03:10.660Z,12.60
2023-02-19T17:05:39.567Z,12.70
2023-02-19T17:08:41.241Z,12.60
2023-02-19T17:11:17.588Z,12.50
2023-02-19T17:13:47.099Z,12.50
2023-02-19T17:16:23.002Z,12.40
2023-02-19T17:18:52.060Z,12.30
2023-02-19T17:21:25.656Z,12.30
2023-02-19T17:23:54.314Z,12.30
2023-02-19T17:26:32.203Z,12.40
2023-02-19T17:29:01.938Z,12.50
2023-02-19T17:31:29.659Z,12.50
2023-02-19T17:33:57.176Z,12.50
2023-02-19T17:36:31.948Z,12.50
2023-02-19T17:39:01.955Z,12.50
2023-02-19T17:41:30.132Z,12.50
2023-02-19T17:43:57.813Z,12.50
2023-02-19T17:46:27.475Z,12.40
2023-02-19T17:49:01.377Z,12.30
2023-02-19T17:51:30.621Z,12.30
2023-02-19T17:54:01.567Z,12.30
2023-02-19T17:56:29.459Z,12.30
2023-02-19T17:58:57.583Z,12.30
2023-02-19T18:01:25.823Z,12.30
2023-02-19T18:03:53.833Z,12.30
2023-02-19T18:06:21.886Z,12.30
2023-02-19T18:08:51.588Z,12.30
2023-02-19T18:11:22.376Z,12.40
2023-02-19T18:13:52.730Z,12.30
2023-02-19T18:16:20.187Z,12.30
2023-02-19T18:18:47.524Z,12.30
2023-02-19T18:21:17.397Z,12.30
2023-02-19T18:23:48.832Z,12.30
2023-02-19T18:26:26.516Z,12.30
2023-02-19T18:28:54.464Z,12.30
2023-02-19T18:31:21.817Z,12.30
2023-02-19T18:33:50.238Z,12.20
2023-02-19T18:36:18.501Z,12.30
2023-02-19T18:38:46.959Z,12.20
2023-02-19T18:41:22.319Z,12.20
2023-02-19T18:43:49.896Z,12.20
2023-02-19T18:46:21.756Z,12.20
2023-02-19T18:48:50.317Z,12.20
2023-02-19T18:51:17.909Z,12.20
2023-02-19T18:53:45.301Z,12.20
2023-02-19T18:56:13.096Z,12.20
2023-02-19T18:58:42.064Z,12.40
2023-02-19T19:01:10.025Z,12.20
2023-02-19T19:03:38.979Z,12.20
2023-02-19T19:06:06.349Z,12.20
2023-02-19T19:08:34.185Z,12.20
2023-02-19T19:11:02.828Z,12.10
2023-02-19T19:13:30.774Z,12.00
2023-02-19T19:15:58.081Z,12.00
2023-02-19T19:18:26.620Z,12.00
2023-02-19T19:20:56.826Z,12.00
2023-02-19T19:23:26.695Z,11.90
2023-02-19T19:25:56.287Z,11.90
2023-02-19T19:28:24.125Z,11.70
2023-02-19T19:30:51.699Z,11.70
2023-02-19T19:33:20.464Z,11.70
2023-02-19T19:35:47.804Z,11.70
2023-02-19T19:38:15.576Z,11.70
2023-02-19T19:40:45.755Z,11.50
2023-02-19T19:43:15.248Z,11.50
2023-02-19T19:45:44.452Z,11.40
2023-02-19T19:48:12.832Z,11.30
2023-02-19T19:50:40.175Z,11.30
2023-02-19T19:53:07.796Z,11.30
2023-02-19T19:55:36.038Z,11.30
2023-02-19T19:58:03.420Z,11.20
2023-02-19T20:00:35.375Z,11.30
2023-02-19T20:03:03.355Z,11.40
2023-02-19T20:05:32.227Z,11.50
2023-02-19T20:07:59.899Z,11.50
2023-02-19T20:10:27.240Z,11.50
2023-02-19T20:12:57.233Z,11.50
2023-02-19T20:15:28.388Z,11.60
2023-02-19T20:17:55.722Z,11.70
2023-02-19T20:20:23.351Z,11.70
2023-02-19T20:22:53.211Z,11.70
2023-02-19T20:25:23.080Z,11.70
2023-02-19T20:27:52.984Z,11.70
2023-02-19T20:30:27.343Z,11.50
2023-02-19T20:32:54.930Z,11.50
2023-02-19T20:35:22.338Z,11.40
2023-02-19T20:37:50.951Z,11.40
2023-02-19T20:40:18.699Z,11.30
2023-02-19T20:42:46.114Z,11.30
2023-02-19T20:45:20.085Z,11.30
2023-02-19T20:47:54.847Z,11.00
2023-02-19T20:50:25.814Z,11.00
2023-02-19T20:52:56.024Z,10.80
2023-02-19T20:55:24.367Z,10.50
2023-02-19T20:57:53.068Z,10.30
2023-02-19T21:00:26.082Z,10.30
2023-02-19T21:02:53.638Z,10.10
2023-02-19T21:05:22.091Z,10.30
2023-02-19T21:07:49.704Z,10.30
2023-02-19T21:10:17.313Z,10.20
2023-02-19T21:12:45.846Z,10.10
2023-02-19T21:15:14.969Z,10.00
2023-02-19T21:17:45.609Z,9.90
2023-02-19T21:20:14.264Z,9.80
2023-02-19T21:22:41.854Z,9.80
2023-02-19T21:25:09.163Z,9.60
2023-02-19T21:27:38.464Z,9.40
2023-02-19T21:30:07.642Z,9.50
2023-02-19T21:33:37.510Z,9.50
2023-02-19T21:36:06.581Z,9.20
2023-02-19T21:38:34.333Z,9.00
2023-02-19T21:41:03.539Z,8.60
2023-02-19T21:43:31.400Z,8.70
2023-02-19T21:46:01.451Z,8.60
2023-02-19T21:48:29.030Z,8.90
2023-02-19T21:50:57.271Z,9.00
2023-02-19T21:53:24.613Z,9.20
2023-02-19T21:55:58.779Z,9.20
2023-02-19T21:58:27.176Z,8.90
2023-02-19T22:00:56.477Z,9.00
2023-02-19T22:03:26.552Z,9.20
2023-02-19T22:05:55.624Z,9.20
2023-02-19T22:08:22.921Z,9.10
2023-02-19T22:10:51.376Z,8.80
2023-02-19T22:13:18.690Z,8.80
2023-02-19T22:15:47.802Z,8.80
2023-02-19T22:18:15.249Z,8.90
2023-02-19T22:20:42.678Z,9.10
2023-02-19T22:23:10.259Z,9.10
2023-02-19T22:25:38.181Z,8.60
2023-02-19T22:28:07.845Z,8.60
2023-02-19T22:30:38.893Z,8.50
2023-02-19T22:33:07.171Z,8.50
2023-02-19T22:35:34.839Z,8.20
2023-02-19T22:38:03.661Z,8.30
2023-02-19T22:40:31.334Z,8.40
2023-02-19T22:42:58.680Z,8.40
2023-02-19T22:45:29.454Z,8.50
2023-02-19T22:47:57.934Z,8.60
2023-02-19T22:50:26.669Z,8.00
2023-02-19T22:52:55.264Z,7.70
2023-02-19T22:55:22.508Z,7.90
2023-02-19T22:57:50.827Z,8.10
2023-02-19T23:00:24.707Z,8.30
2023-02-19T23:02:54.514Z,8.40
2023-02-19T23:05:24.650Z,8.10
2023-02-19T23:07:53.296Z,8.20
2023-02-19T23:10:20.655Z,8.10
2023-02-19T23:12:49.108Z,8.00
2023-02-19T23:15:17.575Z,8.00
2023-02-19T23:17:47.061Z,7.80
2023-02-19T23:20:14.760Z,7.80
2023-02-19T23:22:43.763Z,7.60
2023-02-19T23:25:11.586Z,7.80
2023-02-19T23:27:38.840Z,7.80
2023-02-19T23:30:10.028Z,7.60
2023-02-19T23:32:37.540Z,7.80
2023-02-19T23:35:05.797Z,7.80
2023-02-19T23:37:33.585Z,7.90
2023-02-19T23:40:01.801Z,8.00
2023-02-19T23:42:29.355Z,8.10
2023-02-19T23:44:57.548Z,7.80
2023-02-19T23:47:26.705Z,7.80
2023-02-19T23:49:54.661Z,7.70
2023-02-19T23:52:22.058Z,7.40
2023-02-19T23:54:50.716Z,7.30
2023-02-19T23:57:18.224Z,7.50
2023-02-19T23:59:47.375Z,7.80
